Airfield :
LOGIN :

Register | Disclaimer

   EN    FR    IT 

 










Legend :    VFR   Marginal VFR   IFR   Intensive IFR   Very Intensive IFR
Visi :
Ceiling :
>= 8 km
>= 3000ft
5 to 8 km
1000 to 3000 ft
1500m to 5 km
500 to 1000 ft
800 to 1500m
200 to 500 ft
< 800m
< 200 ft
Symbols :   Thunderstorms  Fog  Heavy snow  Heavy precipitations  Wind > 20 kt
SIGMETs :     Misc.  Thunderstorms  Icing  Turbulence  Mountain Waves  Volcanic Ashes






- Airport Elevation : 34 ft
- IATA code : BLK


EGNH - Blackpool

CURRENT METAR :
  • 251720Z 17011KT 9000 BKN036 06/04 Q1013

EXPIRED METARs :
  • 251650Z 17010KT 9000 BKN036 06/04 Q1013
  • 251620Z 18012KT 9000 BKN037 07/04 Q1013
  • 251550Z 18009KT 9999 BKN039 07/04 Q1013
  • 251520Z 20012KT 9999 BKN038 07/04 Q1013
  • 251450Z 20015KT 9999 BKN037 07/04 Q1014

TAF TAF EGNH
Valid from the 25 at 18:00 until the 25 at 21:00 UTC


251702Z 2518/2521 20009KT 9000 BKN035
PROB30
TEMPO 2518/2521 4000 BR BKN014
ATIS : +44 1253 343 434 (x8315)



MET'MAP, your aeronautical weather chart ! - Copyright ORBIFLY December 2007 - Disclaimer

ORBIFLY MET'MAP TEAM :

Programming & Development : Alexandra Zaïnal
Concept & original design : Baudouin d'Aumeries
Assistance for programming : Marc-Olivier Méhu
Technical & hardware support : Manuel Goepfert

Contact : metmap@orbifly.com




SOURCES & CREDITS :

   NOAA